KAFO/AFO METAR and TAF weather

Enter ICAO airport designator
Station Type Date Time Source
KAFO METAR 2022/12/02 23:10 UTC NOAA

KAFO 022310Z AUTO 00000KT 10SM CLR M10/M14 A3018 RMK AO2


Station Type Date Time Source
KAFO Decoded METAR 2022/12/02 23:10 UTC NOAA

Station name not available
Dec 02, 2022 - 06:10 PM EST / 2022.12.02 2310 UTC
Wind: Calm:0
Visibility: 10 mile(s):0
Sky conditions: clear
Temperature: 14 F (-10 C)
Dew Point: 6 F (-14 C)
Relative Humidity: 72%
Pressure (altimeter): 30.18 in. Hg (1022 hPa)
ob: KAFO 022310Z AUTO 00000KT 10SM CLR M10/M14 A3018 RMK AO2
cycle: 23

Station Type Date Time Source
KAFO TAF UTC NOAA

Error!

Example: see airport list